Time;durP1;ratioP1;P1;durP2;ratioP2;P2;SDS_P1;SDS_P2;PMS_P1;PMS_P2;Temp;Humidity;BMP_temperature;BMP_pressure;BME280_temperature;BME280_humidity;BME280_pressure;Samples;Min_cycle;Max_cycle;Signal;HPM_P1;HPM_P2
2023/04/22 00:03:33;;;;;;;3.13;2.93;;;15.00;32.10;;;;;;10446193;28;20228;-68
2023/04/22 00:08:37;;;;;;;3.77;3.47;;;15.00;32.10;;;;;;10455779;28;20228;-69
2023/04/22 00:13:40;;;;;;;3.37;2.90;;;15.00;32.10;;;;;;10449533;28;20487;-68
2023/04/22 00:18:45;;;;;;;3.50;3.20;;;14.90;32.00;;;;;;10455696;28;20345;-68
2023/04/22 00:23:48;;;;;;;3.60;3.30;;;14.90;32.00;;;;;;10448581;28;20229;-68
2023/04/22 00:28:51;;;;;;;3.60;3.30;;;14.80;31.90;;;;;;10451935;28;20228;-68
2023/04/22 00:33:56;;;;;;;4.47;3.30;;;14.70;31.80;;;;;;10450298;28;20237;-68
2023/04/22 00:38:59;;;;;;;4.20;3.80;;;14.60;31.80;;;;;;10453700;28;20244;-68
2023/04/22 00:44:03;;;;;;;6.47;3.57;;;14.50;31.70;;;;;;10455817;28;20225;-69
2023/04/22 00:49:08;;;;;;;3.73;3.43;;;14.40;32.40;;;;;;10453485;28;21136;-68
2023/04/22 00:54:12;;;;;;;3.80;3.50;;;14.30;32.40;;;;;;10447833;28;20233;-68
2023/04/22 00:59:15;;;;;;;3.97;3.63;;;14.30;32.30;;;;;;10459101;28;20723;-68
2023/04/22 01:04:21;;;;;;;4.17;3.40;;;14.20;32.40;;;;;;10461422;28;20971;-68
2023/04/22 01:09:24;;;;;;;3.30;3.10;;;14.20;32.90;;;;;;10466509;28;20717;-68
2023/04/22 01:14:28;;;;;;;5.03;3.03;;;14.20;32.60;;;;;;10460066;28;20243;-68
2023/04/22 01:19:32;;;;;;;4.23;3.43;;;14.10;32.50;;;;;;10463550;28;20228;-68
2023/04/22 01:24:37;;;;;;;3.80;3.50;;;14.10;32.60;;;;;;10460158;28;20225;-68
2023/04/22 01:29:40;;;;;;;4.17;3.80;;;14.10;32.90;;;;;;10460839;28;20243;-68
2023/04/22 01:34:44;;;;;;;2.90;2.70;;;14.00;32.60;;;;;;10455613;28;20244;-68
2023/04/22 01:39:49;;;;;;;3.77;3.00;;;14.00;32.60;;;;;;10464266;28;20624;-68
2023/04/22 01:44:52;;;;;;;3.60;3.20;;;14.00;33.00;;;;;;10459871;28;20228;-67
2023/04/22 01:49:59;;;;;;;3.83;3.53;;;14.00;32.70;;;;;;10458916;28;20251;-67
2023/04/22 01:55:04;;;;;;;3.07;2.87;;;13.90;32.80;;;;;;10451769;28;20708;-69
2023/04/22 02:00:09;;;;;;;3.70;3.40;;;13.90;33.00;;;;;;10451952;28;20231;-68
2023/04/22 02:05:12;;;;;;;4.53;3.43;;;13.80;33.00;;;;;;10464363;28;20317;-68
2023/04/22 02:10:16;;;;;;;3.57;3.33;;;13.80;32.90;;;;;;10454927;28;20229;-68
2023/04/22 02:15:20;;;;;;;4.37;3.60;;;13.80;33.20;;;;;;10458453;28;20258;-68
2023/04/22 02:20:23;;;;;;;3.90;3.60;;;13.70;33.00;;;;;;10461099;28;20225;-68
2023/04/22 02:25:29;;;;;;;3.37;3.10;;;13.60;32.90;;;;;;10457284;28;20221;-68
2023/04/22 02:30:32;;;;;;;6.53;3.80;;;13.50;33.40;;;;;;10456596;28;20220;-68
2023/04/22 02:35:35;;;;;;;3.80;3.50;;;13.50;33.10;;;;;;10451304;28;20232;-68
2023/04/22 02:40:40;;;;;;;4.20;3.40;;;13.40;33.10;;;;;;10455013;28;20224;-68
2023/04/22 02:45:43;;;;;;;3.53;3.23;;;13.30;33.40;;;;;;10458867;28;20689;-68
2023/04/22 02:50:46;;;;;;;3.63;3.33;;;13.20;33.30;;;;;;10457995;28;20750;-68
2023/04/22 02:55:51;;;;;;;3.60;3.00;;;13.20;33.60;;;;;;10458888;28;20243;-68
2023/04/22 03:00:55;;;;;;;4.67;3.87;;;13.20;33.90;;;;;;10454431;28;20224;-68
2023/04/22 03:05:58;;;;;;;3.97;3.60;;;13.20;33.80;;;;;;10457158;28;20401;-68
2023/04/22 03:11:04;;;;;;;3.50;3.30;;;13.20;33.60;;;;;;10455496;28;20252;-70
2023/04/22 03:16:07;;;;;;;3.97;3.33;;;13.20;33.70;;;;;;10458437;28;20240;-68
2023/04/22 03:21:10;;;;;;;3.00;2.80;;;13.10;33.30;;;;;;10455054;28;20319;-68
2023/04/22 03:26:15;;;;;;;3.80;3.47;;;13.10;33.40;;;;;;10453978;28;20231;-68
2023/04/22 03:31:18;;;;;;;3.83;3.53;;;13.00;33.70;;;;;;10455632;28;20813;-68
2023/04/22 03:36:21;;;;;;;4.70;3.50;;;13.00;33.50;;;;;;10457421;28;20319;-68
2023/04/22 03:41:26;;;;;;;3.90;3.67;;;12.90;34.20;;;;;;10451816;28;20228;-67
2023/04/22 03:46:29;;;;;;;2.97;2.77;;;12.80;33.60;;;;;;10454237;28;20410;-68
2023/04/22 03:51:32;;;;;;;3.00;2.77;;;12.70;33.40;;;;;;10459392;28;20592;-67
2023/04/22 03:56:37;;;;;;;3.20;3.00;;;12.70;33.70;;;;;;10456441;28;20248;-68
2023/04/22 04:01:40;;;;;;;3.00;2.73;;;12.60;34.00;;;;;;10451264;28;20231;-68
2023/04/22 04:06:43;;;;;;;3.77;3.47;;;12.60;33.60;;;;;;10459456;28;20236;-67
2023/04/22 04:11:47;;;;;;;3.40;3.10;;;12.50;33.70;;;;;;10454211;28;20224;-68
2023/04/22 04:16:51;;;;;;;2.77;2.60;;;12.50;33.90;;;;;;10452013;28;20240;-68
2023/04/22 04:21:54;;;;;;;3.40;3.03;;;12.50;33.70;;;;;;10454815;28;20995;-68
2023/04/22 04:26:59;;;;;;;3.90;3.50;;;12.50;33.80;;;;;;10454033;28;21132;-68
2023/04/22 04:32:03;;;;;;;3.07;2.87;;;12.50;34.00;;;;;;10458411;28;20220;-68
2023/04/22 04:37:06;;;;;;;3.53;3.23;;;12.40;33.70;;;;;;10463249;28;20213;-68
2023/04/22 04:42:13;;;;;;;3.23;2.93;;;12.40;33.80;;;;;;10461202;28;21808;-68
2023/04/22 04:47:16;;;;;;;3.90;3.60;;;12.30;34.00;;;;;;10454726;28;20224;-68
2023/04/22 04:52:19;;;;;;;4.13;3.70;;;12.30;33.90;;;;;;10460750;28;20243;-68
2023/04/22 04:57:24;;;;;;;3.70;3.40;;;12.30;34.00;;;;;;10464941;28;20232;-68
2023/04/22 05:02:27;;;;;;;4.07;3.47;;;12.20;34.10;;;;;;10462190;28;20700;-68
2023/04/22 05:07:30;;;;;;;3.90;3.60;;;12.10;34.00;;;;;;10459107;28;20304;-68
2023/04/22 05:12:35;;;;;;;3.80;3.50;;;12.10;34.30;;;;;;10463689;28;20224;-68
2023/04/22 05:17:38;;;;;;;6.67;5.80;;;12.10;34.70;;;;;;10457576;28;20235;-67
2023/04/22 05:22:42;;;;;;;5.50;4.57;;;12.10;34.70;;;;;;10463719;28;20342;-68
2023/04/22 05:27:46;;;;;;;4.77;4.37;;;12.10;34.90;;;;;;10461925;28;20232;-67
2023/04/22 05:32:49;;;;;;;4.50;4.10;;;12.10;35.40;;;;;;10459818;28;20829;-68
2023/04/22 05:37:53;;;;;;;4.30;4.00;;;12.20;35.30;;;;;;10461758;28;20249;-68
2023/04/22 05:42:58;;;;;;;5.40;4.90;;;12.20;35.40;;;;;;10461099;28;20228;-69
2023/04/22 05:48:01;;;;;;;5.20;4.40;;;12.30;35.90;;;;;;10464294;28;20751;-68
2023/04/22 05:53:04;;;;;;;4.20;3.77;;;12.30;35.70;;;;;;10459915;28;20217;-69
2023/04/22 05:58:08;;;;;;;4.40;3.40;;;12.40;35.80;;;;;;10461565;28;20608;-68
2023/04/22 06:03:11;;;;;;;4.33;3.93;;;12.50;36.10;;;;;;10457496;28;20232;-68
2023/04/22 06:08:15;;;;;;;5.17;4.07;;;12.50;35.80;;;;;;10459562;28;20691;-68
2023/04/22 06:13:20;;;;;;;5.70;4.40;;;12.60;35.80;;;;;;10459851;28;20310;-68
2023/04/22 06:18:23;;;;;;;4.40;4.00;;;12.70;36.00;;;;;;10457227;28;20691;-68
2023/04/22 06:23:28;;;;;;;4.60;4.10;;;12.90;36.00;;;;;;10460757;28;20310;-68
2023/04/22 06:28:33;;;;;;;4.80;4.17;;;13.00;36.10;;;;;;10454945;28;20227;-68
2023/04/22 06:33:36;;;;;;;5.57;4.07;;;13.10;36.40;;;;;;10457397;28;20228;-69
2023/04/22 06:38:39;;;;;;;5.60;4.37;;;13.20;36.20;;;;;;10463189;28;20236;-68
2023/04/22 06:43:44;;;;;;;5.53;4.20;;;13.40;36.50;;;;;;10459761;28;20243;-68
2023/04/22 06:48:47;;;;;;;8.13;4.30;;;13.50;36.90;;;;;;10461312;28;20267;-68
2023/04/22 06:53:50;;;;;;;4.63;4.13;;;13.70;36.50;;;;;;10453033;28;20225;-68
2023/04/22 06:58:55;;;;;;;5.10;4.60;;;13.80;36.50;;;;;;10448664;28;20283;-68
2023/04/22 07:03:58;;;;;;;6.60;4.33;;;14.00;37.10;;;;;;10460224;28;20228;-68
2023/04/22 07:09:01;;;;;;;5.57;4.17;;;14.10;36.80;;;;;;10461829;28;20255;-68
2023/04/22 07:14:06;;;;;;;4.57;4.17;;;14.30;36.80;;;;;;10457168;28;20251;-69
2023/04/22 07:19:09;;;;;;;5.87;4.27;;;14.40;37.10;;;;;;10453622;28;20232;-69
2023/04/22 07:24:12;;;;;;;6.83;4.40;;;14.50;36.90;;;;;;10456678;28;20236;-69
2023/04/22 07:29:17;;;;;;;4.33;3.93;;;14.70;37.10;;;;;;10452718;28;20684;-69
2023/04/22 07:34:20;;;;;;;6.47;4.20;;;14.80;37.50;;;;;;10457149;28;20604;-69
2023/04/22 07:39:23;;;;;;;4.00;3.60;;;15.00;37.20;;;;;;10455914;28;23197;-69
2023/04/22 07:44:28;;;;;;;4.83;3.93;;;15.20;37.20;;;;;;10453439;28;20358;-68
2023/04/22 07:49:31;;;;;;;5.27;3.47;;;15.30;37.20;;;;;;10453765;28;20231;-68
2023/04/22 07:54:34;;;;;;;4.60;3.20;;;15.50;37.20;;;;;;10449457;28;20217;-68
2023/04/22 07:59:39;;;;;;;2.83;2.63;;;15.70;36.80;;;;;;10452135;28;20985;-69
2023/04/22 08:04:43;;;;;;;3.20;2.60;;;16.00;36.70;;;;;;10459075;28;20229;-69
2023/04/22 08:09:46;;;;;;;2.57;2.37;;;16.30;36.90;;;;;;10462757;28;20228;-68
2023/04/22 08:14:51;;;;;;;5.77;2.63;;;16.60;36.80;;;;;;10465827;28;20930;-67
2023/04/22 08:19:54;;;;;;;2.50;2.30;;;16.90;36.90;;;;;;10465283;28;20228;-67
2023/04/22 08:24:57;;;;;;;3.07;2.23;;;17.20;36.50;;;;;;10467647;28;20226;-67
2023/04/22 08:30:02;;;;;;;2.10;2.00;;;17.60;36.20;;;;;;10456814;28;20228;-68
2023/04/22 08:35:06;;;;;;;2.57;2.07;;;18.00;35.90;;;;;;10464125;28;20233;-68
2023/04/22 08:40:10;;;;;;;2.50;1.90;;;18.30;35.10;;;;;;10457434;28;20235;-75
2023/04/22 08:45:14;;;;;;;2.33;2.13;;;18.60;35.30;;;;;;10462689;28;20289;-76
2023/04/22 08:50:21;;;;;;;2.13;2.00;;;19.00;34.60;;;;;;10461965;28;20234;-75
2023/04/22 08:55:25;;;;;;;1.93;1.80;;;19.20;33.70;;;;;;10460365;28;20232;-76
2023/04/22 09:00:30;;;;;;;2.60;1.70;;;19.50;34.00;;;;;;10449244;28;20766;-75
2023/04/22 09:05:36;;;;;;;2.33;1.93;;;19.60;33.00;;;;;;10464661;28;20227;-71
2023/04/22 09:10:39;;;;;;;2.00;1.90;;;19.80;33.50;;;;;;10459648;28;20235;-71
2023/04/22 09:15:45;;;;;;;2.10;1.90;;;20.00;33.10;;;;;;10461211;28;20873;-71
2023/04/22 09:20:49;;;;;;;1.80;1.70;;;20.10;32.40;;;;;;10464556;28;20225;-71
2023/04/22 09:25:52;;;;;;;2.20;1.80;;;20.30;33.00;;;;;;10458001;28;20233;-71
2023/04/22 09:31:02;;;;;;;3.00;1.70;;;20.50;32.60;;;;;;10464430;28;20225;-71
2023/04/22 09:36:09;;;;;;;1.53;1.43;;;20.60;30.50;;;;;;10461781;28;20220;-70
2023/04/22 09:41:13;;;;;;;1.73;1.63;;;20.70;30.90;;;;;;10461092;28;20225;-70
2023/04/22 09:46:17;;;;;;;1.73;1.60;;;20.90;32.00;;;;;;10449505;28;20649;-71
2023/04/22 09:51:21;;;;;;;2.27;1.60;;;21.00;31.20;;;;;;10459989;28;20297;-68
2023/04/22 09:56:40;;;;;;;1.83;1.73;;;21.20;31.20;;;;;;10458115;28;20303;-72
2023/04/22 10:01:44;;;;;;;1.60;1.50;;;21.30;29.90;;;;;;10460975;28;20225;-71
2023/04/22 10:06:48;;;;;;;9.40;1.70;;;21.50;30.00;;;;;;10458674;28;20598;-68
2023/04/22 10:11:53;;;;;;;1.50;1.40;;;21.70;31.00;;;;;;10459467;28;20228;-70
2023/04/22 10:17:01;;;;;;;1.60;1.50;;;21.90;30.00;;;;;;10456258;28;20583;-71
2023/04/22 10:22:06;;;;;;;1.67;1.57;;;22.10;29.30;;;;;;10457527;28;20224;-71
2023/04/22 10:27:11;;;;;;;1.37;1.37;;;22.30;30.00;;;;;;10453500;28;20750;-71
2023/04/22 10:32:26;;;;;;;2.00;1.80;;;22.40;29.60;;;;;;10454213;28;20255;-77
2023/04/22 10:37:29;;;;;;;1.30;1.30;;;22.60;29.90;;;;;;10458754;28;20239;-68
2023/04/22 10:42:35;;;;;;;1.60;1.50;;;22.70;29.60;;;;;;10457335;28;20228;-71
2023/04/22 10:47:41;;;;;;;1.50;1.40;;;22.90;29.60;;;;;;10457390;28;20233;-71
2023/04/22 10:52:48;;;;;;;1.50;1.40;;;23.00;28.40;;;;;;10455835;28;20228;-68
2023/04/22 10:57:52;;;;;;;1.50;1.40;;;23.10;28.20;;;;;;10457947;28;20225;-71
2023/04/22 11:03:10;;;;;;;1.43;1.40;;;23.20;28.30;;;;;;10458880;28;20230;-71
2023/04/22 11:08:20;;;;;;;2.60;1.40;;;23.20;28.20;;;;;;10457573;28;20823;-71
2023/04/22 11:13:23;;;;;;;2.50;1.53;;;23.30;27.50;;;;;;10460398;28;20235;-70
2023/04/22 11:18:28;;;;;;;1.47;1.33;;;23.30;27.50;;;;;;10458311;28;21031;-70
2023/04/22 11:23:31;;;;;;;1.43;1.33;;;23.30;27.50;;;;;;10458140;28;20232;-70
2023/04/22 11:28:35;;;;;;;2.30;1.63;;;23.30;27.70;;;;;;10459509;28;20236;-70
2023/04/22 11:33:40;;;;;;;1.40;1.30;;;23.50;27.70;;;;;;10447847;28;20232;-71
2023/04/22 11:38:53;;;;;;;1.50;1.40;;;23.60;27.80;;;;;;10446728;28;20232;-71
2023/04/22 11:43:57;;;;;;;1.23;1.23;;;23.70;27.80;;;;;;10463874;28;20239;-70
2023/04/22 11:49:13;;;;;;;1.60;1.50;;;23.80;27.10;;;;;;10452168;28;20602;-71
2023/04/22 11:54:18;;;;;;;1.73;1.40;;;23.80;26.10;;;;;;10414888;28;20223;-70
2023/04/22 11:59:24;;;;;;;1.30;1.20;;;23.90;27.30;;;;;;10451281;28;22457;-71
2023/04/22 12:04:29;;;;;;;1.40;1.30;;;24.00;26.10;;;;;;10456039;28;20704;-70
2023/04/22 12:09:33;;;;;;;2.00;1.13;;;24.10;26.20;;;;;;10453843;28;20856;-70
2023/04/22 12:14:37;;;;;;;1.27;1.13;;;24.10;25.60;;;;;;10456323;28;20223;-69
2023/04/22 12:19:46;;;;;;;1.27;1.10;;;24.20;26.30;;;;;;10457508;28;20334;-70
2023/04/22 12:24:50;;;;;;;1.20;1.10;;;24.20;25.50;;;;;;10458342;28;20879;-70
2023/04/22 12:29:55;;;;;;;1.20;1.20;;;24.30;25.40;;;;;;10458113;28;20233;-70
2023/04/22 12:34:59;;;;;;;1.10;1.10;;;24.30;25.80;;;;;;10457876;28;20228;-70
2023/04/22 12:40:05;;;;;;;1.23;1.17;;;24.30;25.60;;;;;;10457551;28;20244;-71
2023/04/22 12:45:09;;;;;;;1.40;1.23;;;24.40;25.60;;;;;;10454762;28;20228;-71
2023/04/22 12:50:14;;;;;;;1.30;1.20;;;24.40;25.90;;;;;;10458149;28;20240;-71
2023/04/22 12:55:18;;;;;;;1.77;1.27;;;24.50;25.30;;;;;;10461842;28;20224;-71
2023/04/22 13:00:21;;;;;;;1.40;1.30;;;24.60;25.30;;;;;;10466859;28;21245;-70
2023/04/22 13:05:26;;;;;;;1.33;1.27;;;24.60;25.00;;;;;;10463914;28;20243;-70
2023/04/22 13:10:29;;;;;;;2.57;1.30;;;24.60;24.90;;;;;;10467131;28;20227;-70
2023/04/22 13:15:32;;;;;;;1.40;1.30;;;24.70;25.10;;;;;;10458837;28;20227;-70
2023/04/22 13:20:37;;;;;;;1.27;1.27;;;24.70;24.70;;;;;;10461703;28;20229;-70
2023/04/22 13:25:40;;;;;;;1.33;1.10;;;24.70;24.20;;;;;;10458714;28;20233;-70
2023/04/22 13:30:43;;;;;;;1.20;1.10;;;24.70;24.50;;;;;;10468240;28;20250;-70
2023/04/22 13:35:48;;;;;;;1.20;1.20;;;24.80;24.50;;;;;;10463001;28;20731;-71
2023/04/22 13:40:51;;;;;;;1.10;1.10;;;24.90;23.90;;;;;;10463781;28;20228;-71
2023/04/22 13:45:54;;;;;;;1.00;1.00;;;25.00;25.00;;;;;;10462718;28;20223;-70
2023/04/22 13:50:59;;;;;;;1.00;1.00;;;25.10;24.10;;;;;;10463776;28;20229;-70
2023/04/22 13:56:02;;;;;;;1.30;1.20;;;25.20;23.10;;;;;;10466199;28;20224;-72
2023/04/22 14:01:05;;;;;;;1.20;1.20;;;25.20;23.50;;;;;;10463981;28;20239;-71
2023/04/22 14:06:10;;;;;;;1.20;1.10;;;25.20;23.10;;;;;;10468252;28;20277;-67
2023/04/22 14:11:14;;;;;;;1.40;1.30;;;25.20;22.80;;;;;;10463757;28;20221;-71
2023/04/22 14:16:18;;;;;;;1.70;1.20;;;25.20;22.70;;;;;;10460675;28;22523;-68
2023/04/22 14:21:22;;;;;;;1.33;1.23;;;25.30;23.10;;;;;;10448714;28;20787;-71
2023/04/22 14:26:31;;;;;;;1.30;1.20;;;25.30;22.30;;;;;;10460164;28;20224;-71
2023/04/22 14:31:34;;;;;;;0.90;0.90;;;25.40;22.50;;;;;;10457275;28;20232;-71
2023/04/22 14:36:39;;;;;;;1.10;1.10;;;25.40;22.30;;;;;;10458878;28;20233;-67
2023/04/22 14:41:42;;;;;;;1.00;1.00;;;25.40;21.90;;;;;;10454409;28;20262;-71
2023/04/22 14:46:45;;;;;;;1.13;1.13;;;25.50;22.00;;;;;;10460027;28;20237;-71
2023/04/22 14:51:50;;;;;;;1.30;1.20;;;25.50;21.90;;;;;;10456285;28;20242;-71
2023/04/22 14:56:54;;;;;;;1.63;1.30;;;25.60;21.20;;;;;;10462052;28;20708;-71
2023/04/22 15:01:57;;;;;;;5.20;1.30;;;25.60;21.80;;;;;;10462031;28;20229;-71
2023/04/22 15:07:02;;;;;;;1.33;1.30;;;25.50;21.80;;;;;;10459633;28;21103;-71
2023/04/22 15:12:08;;;;;;;3.43;1.30;;;25.60;21.10;;;;;;10456182;28;20231;-71
2023/04/22 15:17:11;;;;;;;1.17;1.13;;;25.50;21.40;;;;;;10455531;28;20244;-73
2023/04/22 15:22:16;;;;;;;1.10;1.10;;;25.50;21.60;;;;;;10458271;28;20232;-73
2023/04/22 15:27:19;;;;;;;1.30;1.20;;;25.40;21.10;;;;;;10459833;28;20734;-73
2023/04/22 15:32:22;;;;;;;1.23;1.23;;;25.40;21.30;;;;;;10456979;28;20274;-74
2023/04/22 15:37:27;;;;;;;0.90;0.90;;;25.50;21.50;;;;;;10450206;28;20639;-74
2023/04/22 15:42:30;;;;;;;1.30;1.20;;;25.50;21.10;;;;;;10454499;28;20261;-74
2023/04/22 15:47:34;;;;;;;1.30;1.13;;;25.60;21.50;;;;;;10447186;28;20236;-74
2023/04/22 15:52:39;;;;;;;1.40;1.30;;;25.70;21.00;;;;;;10458157;28;20303;-73
2023/04/22 15:57:42;;;;;;;1.20;1.10;;;25.70;20.10;;;;;;10453724;28;20237;-74
2023/04/22 16:02:53;;;;;;;1.33;1.00;;;25.70;20.60;;;;;;10457966;28;20730;-74
2023/04/22 16:07:58;;;;;;;1.80;1.70;;;25.70;20.60;;;;;;10457301;28;20217;-74
2023/04/22 16:13:02;;;;;;;1.50;1.40;;;25.70;20.20;;;;;;10450356;28;20597;-72
2023/04/22 16:18:05;;;;;;;1.43;1.33;;;25.70;20.20;;;;;;10459399;28;20239;-72
2023/04/22 16:23:10;;;;;;;1.63;1.40;;;25.60;20.00;;;;;;10446731;28;20636;-72
2023/04/22 16:28:13;;;;;;;1.40;1.30;;;25.60;20.00;;;;;;10460341;28;20297;-72
2023/04/22 16:33:16;;;;;;;1.60;1.37;;;25.50;20.00;;;;;;10461906;28;20262;-72
2023/04/22 16:38:21;;;;;;;1.60;1.50;;;25.50;19.90;;;;;;10455113;28;20696;-72
2023/04/22 16:43:24;;;;;;;2.50;1.30;;;25.40;19.70;;;;;;10466414;28;20220;-72
2023/04/22 16:48:27;;;;;;;1.77;1.40;;;25.40;19.90;;;;;;10460095;28;20748;-72
2023/04/22 16:53:32;;;;;;;1.33;1.13;;;25.40;20.00;;;;;;10462497;28;20239;-67
2023/04/22 16:58:35;;;;;;;1.40;1.30;;;25.40;19.30;;;;;;10463827;28;20233;-68
2023/04/22 17:03:38;;;;;;;1.50;1.40;;;25.30;19.70;;;;;;10462513;28;20236;-68
2023/04/22 17:08:43;;;;;;;1.60;1.10;;;25.30;19.70;;;;;;10451834;28;20274;-74
2023/04/22 17:13:46;;;;;;;1.90;1.30;;;25.30;19.40;;;;;;10463656;28;20240;-72
2023/04/22 17:18:49;;;;;;;1.40;1.30;;;25.30;19.90;;;;;;10460408;28;20236;-70
2023/04/22 17:23:54;;;;;;;1.20;1.20;;;25.20;19.80;;;;;;10468010;28;20632;-70
2023/04/22 17:28:57;;;;;;;1.17;1.17;;;25.20;19.50;;;;;;10480555;22;20228;-70
2023/04/22 17:34:00;;;;;;;1.90;1.40;;;25.20;20.10;;;;;;10457570;28;20233;-68
2023/04/22 17:39:05;;;;;;;1.40;1.30;;;25.20;20.60;;;;;;10455823;28;20232;-69
2023/04/22 17:44:09;;;;;;;2.83;2.57;;;25.10;20.60;;;;;;10463108;28;20239;-69
2023/04/22 17:49:12;;;;;;;5.23;1.80;;;25.10;21.10;;;;;;10457886;28;20229;-68
2023/04/22 17:54:17;;;;;;;4.37;1.90;;;25.00;21.20;;;;;;10460300;28;20236;-69
2023/04/22 17:59:20;;;;;;;2.93;2.07;;;25.00;21.40;;;;;;10455603;28;20225;-69
2023/04/22 18:04:25;;;;;;;4.57;2.50;;;24.90;21.70;;;;;;10457540;28;20714;-69
2023/04/22 18:09:29;;;;;;;3.03;2.83;;;24.70;21.80;;;;;;10459260;28;21368;-69
2023/04/22 18:14:32;;;;;;;4.17;3.40;;;24.60;22.00;;;;;;10459486;28;20239;-69
2023/04/22 18:19:36;;;;;;;4.00;3.60;;;24.50;22.20;;;;;;10455021;28;20240;-69
2023/04/22 18:24:40;;;;;;;3.47;3.10;;;24.30;22.20;;;;;;10462174;28;20224;-69
2023/04/22 18:29:45;;;;;;;6.50;3.30;;;24.20;22.50;;;;;;10461697;28;20289;-69
2023/04/22 18:34:48;;;;;;;3.03;2.30;;;24.10;22.50;;;;;;10463079;28;20244;-69
2023/04/22 18:39:52;;;;;;;3.00;2.20;;;24.00;22.30;;;;;;10456101;28;20246;-69
2023/04/22 18:44:55;;;;;;;3.20;2.90;;;23.90;22.30;;;;;;10454617;28;20228;-68
2023/04/22 18:49:59;;;;;;;5.47;3.53;;;23.80;22.50;;;;;;10457309;28;20283;-69
2023/04/22 18:55:05;;;;;;;6.30;4.97;;;23.70;22.80;;;;;;10458428;28;20224;-67
2023/04/22 19:00:10;;;;;;;8.77;7.67;;;23.50;22.80;;;;;;10459397;28;20229;-68
2023/04/22 19:05:13;;;;;;;8.67;7.77;;;23.40;22.90;;;;;;10462821;28;20228;-68
2023/04/22 19:10:18;;;;;;;9.63;8.63;;;23.20;22.90;;;;;;10461519;28;20247;-68
2023/04/22 19:15:21;;;;;;;6.73;5.53;;;23.10;23.10;;;;;;10464976;28;20224;-68
2023/04/22 19:20:24;;;;;;;4.20;3.80;;;22.90;23.10;;;;;;10458258;28;20647;-68
2023/04/22 19:25:29;;;;;;;7.50;3.03;;;22.70;23.00;;;;;;10456283;28;20224;-68
2023/04/22 19:30:32;;;;;;;2.97;2.43;;;22.50;23.10;;;;;;10459296;28;20850;-68
2023/04/22 19:35:36;;;;;;;2.83;2.33;;;22.30;23.80;;;;;;10463484;28;20227;-68
2023/04/22 19:40:40;;;;;;;2.67;2.47;;;22.10;24.10;;;;;;10458521;28;20235;-66
2023/04/22 19:45:44;;;;;;;3.23;2.93;;;21.90;24.10;;;;;;10455517;28;20232;-65
2023/04/22 19:50:48;;;;;;;4.30;3.40;;;21.80;24.30;;;;;;10457377;28;20243;-66
2023/04/22 19:55:53;;;;;;;2.47;2.27;;;21.70;24.70;;;;;;10454757;28;20235;-66
2023/04/22 20:00:57;;;;;;;3.27;1.93;;;21.60;24.50;;;;;;10457234;28;20228;-66
2023/04/22 20:06:01;;;;;;;1.73;1.63;;;21.50;24.10;;;;;;10452781;28;20783;-66
2023/04/22 20:11:05;;;;;;;2.10;1.90;;;21.50;24.10;;;;;;10448764;28;20690;-67
2023/04/22 20:16:09;;;;;;;2.10;1.90;;;21.50;24.10;;;;;;10451715;28;20233;-67
2023/04/22 20:21:13;;;;;;;2.17;1.83;;;21.50;24.00;;;;;;10449094;28;20257;-65
2023/04/22 20:26:20;;;;;;;1.70;1.60;;;21.50;24.10;;;;;;10456447;28;20243;-66
2023/04/22 20:31:23;;;;;;;2.70;1.70;;;21.50;24.20;;;;;;10451430;28;20243;-65
2023/04/22 20:36:27;;;;;;;1.93;1.70;;;21.50;24.10;;;;;;10451152;28;20758;-66
2023/04/22 20:41:38;;;;;;;1.90;1.80;;;21.50;24.40;;;;;;10452090;28;20806;-66
2023/04/22 20:46:41;;;;;;;1.97;1.70;;;21.40;25.00;;;;;;10452699;28;20791;-66
2023/04/22 20:51:44;;;;;;;2.13;1.60;;;21.30;24.80;;;;;;10452639;28;20241;-66
2023/04/22 20:56:49;;;;;;;1.73;1.50;;;21.30;24.90;;;;;;10452642;28;20236;-66
2023/04/22 21:01:54;;;;;;;2.17;1.33;;;21.20;25.10;;;;;;10454535;28;20236;-66
2023/04/22 21:07:02;;;;;;;1.83;1.70;;;21.10;25.00;;;;;;10448967;28;20232;-66
2023/04/22 21:12:09;;;;;;;1.90;1.80;;;21.10;25.00;;;;;;10449859;28;20231;-66
2023/04/22 21:17:19;;;;;;;4.73;1.80;;;21.10;25.40;;;;;;10456687;28;20226;-66
2023/04/22 21:22:23;;;;;;;1.87;1.77;;;21.10;25.30;;;;;;10459259;28;20256;-66
2023/04/22 21:27:28;;;;;;;1.70;1.60;;;21.20;25.10;;;;;;10459057;28;20231;-66
2023/04/22 21:32:31;;;;;;;2.97;1.70;;;21.10;25.20;;;;;;10455207;28;20235;-66
2023/04/22 21:37:36;;;;;;;1.83;1.70;;;21.10;25.10;;;;;;10455342;28;20280;-65
2023/04/22 21:42:40;;;;;;;1.77;1.67;;;21.00;25.30;;;;;;10458178;28;20643;-66
2023/04/22 21:47:43;;;;;;;1.70;1.60;;;21.00;26.00;;;;;;10456418;28;20251;-66
2023/04/22 21:52:47;;;;;;;1.90;1.80;;;21.00;25.60;;;;;;10460657;28;20239;-66
2023/04/22 21:57:51;;;;;;;3.13;1.80;;;21.00;26.00;;;;;;10459119;28;20239;-66
2023/04/22 22:02:54;;;;;;;1.90;1.80;;;20.90;25.90;;;;;;10457779;28;20235;-67
2023/04/22 22:07:58;;;;;;;2.10;1.90;;;20.90;25.90;;;;;;10451697;28;20294;-66
2023/04/22 22:13:02;;;;;;;2.17;1.70;;;20.90;25.90;;;;;;10452289;28;20232;-67
2023/04/22 22:18:06;;;;;;;2.50;2.13;;;20.80;26.00;;;;;;10457497;28;20225;-67
2023/04/22 22:23:09;;;;;;;2.53;2.33;;;20.70;25.80;;;;;;10461553;28;20236;-67
2023/04/22 22:28:15;;;;;;;2.90;2.20;;;20.70;25.80;;;;;;10458907;28;20224;-67
2023/04/22 22:33:18;;;;;;;2.40;2.20;;;20.60;26.30;;;;;;10461421;28;20232;-66
2023/04/22 22:38:21;;;;;;;2.30;2.10;;;20.50;26.00;;;;;;10457603;28;20239;-67
2023/04/22 22:43:26;;;;;;;2.00;1.90;;;20.40;26.60;;;;;;10459822;28;20235;-66
2023/04/22 22:48:30;;;;;;;2.73;2.00;;;20.30;26.50;;;;;;10460242;28;20875;-67
2023/04/22 22:53:35;;;;;;;2.30;2.10;;;20.20;26.50;;;;;;10455384;28;20701;-66
2023/04/22 22:58:40;;;;;;;3.50;3.20;;;20.10;26.60;;;;;;10461071;28;20231;-66
2023/04/22 23:03:43;;;;;;;3.37;3.07;;;20.10;27.20;;;;;;10458662;28;20604;-66
2023/04/22 23:08:46;;;;;;;4.03;3.67;;;20.00;27.10;;;;;;10459137;28;20244;-66
2023/04/22 23:13:51;;;;;;;3.60;3.30;;;19.90;27.10;;;;;;10455996;28;20237;-66
2023/04/22 23:18:56;;;;;;;4.00;3.50;;;19.90;27.50;;;;;;10453293;28;20607;-67
2023/04/22 23:24:00;;;;;;;3.30;3.03;;;19.90;27.60;;;;;;10458724;28;20228;-66
2023/04/22 23:29:06;;;;;;;3.37;3.07;;;19.80;27.40;;;;;;10457657;28;20779;-67
2023/04/22 23:34:09;;;;;;;3.30;3.00;;;19.70;27.70;;;;;;10457987;28;20235;-66
2023/04/22 23:39:13;;;;;;;3.47;3.17;;;19.60;27.70;;;;;;10461312;28;20236;-66
2023/04/22 23:44:17;;;;;;;4.13;3.73;;;19.50;27.80;;;;;;10457751;28;20228;-66
2023/04/22 23:49:20;;;;;;;4.00;3.63;;;19.50;28.40;;;;;;10459547;28;20301;-66
2023/04/22 23:54:24;;;;;;;3.33;2.50;;;19.40;28.30;;;;;;10460495;28;20224;-66
2023/04/22 23:59:29;;;;;;;3.37;3.10;;;19.40;28.40;;;;;;10457504;28;20236;-67
